Time;durP1;ratioP1;P1;durP2;ratioP2;P2;SDS_P1;SDS_P2;PMS_P1;PMS_P2;Temp;Humidity;BMP_temperature;BMP_pressure;BME280_temperature;BME280_humidity;BME280_pressure;Samples;Min_cycle;Max_cycle;Signal;HPM_P1;HPM_P2
2022/10/09 00:01:14;;;;;;;7.63;6.50;;;6.30;99.90;;;;;;5116941;28;20196;-64
2022/10/09 00:03:41;;;;;;;8.73;7.10;;;6.30;99.90;;;;;;5116909;28;20176;-63
2022/10/09 00:06:10;;;;;;;11.60;6.97;;;6.30;99.90;;;;;;5116799;28;20267;-63
2022/10/09 00:08:40;;;;;;;11.30;6.87;;;6.20;99.90;;;;;;5096307;28;20209;-63
2022/10/09 00:11:13;;;;;;;7.27;6.33;;;6.20;99.90;;;;;;5096955;28;20191;-63
2022/10/09 00:13:39;;;;;;;9.67;6.40;;;6.20;99.90;;;;;;5096414;28;20162;-63
2022/10/09 00:16:07;;;;;;;8.77;6.57;;;6.20;99.90;;;;;;5096591;28;20195;-63
2022/10/09 00:18:33;;;;;;;12.57;6.63;;;6.20;99.90;;;;;;5096528;28;20248;-63
2022/10/09 00:20:59;;;;;;;9.20;6.27;;;6.30;99.90;;;;;;5096358;28;20603;-63
2022/10/09 00:23:25;;;;;;;7.77;6.53;;;6.30;99.90;;;;;;5096399;28;20169;-63
2022/10/09 00:25:53;;;;;;;14.73;6.30;;;6.20;99.90;;;;;;5096170;28;20177;-63
2022/10/09 00:28:20;;;;;;;12.33;6.70;;;6.10;99.90;;;;;;5103721;28;20266;-63
2022/10/09 00:30:46;;;;;;;9.00;7.07;;;6.00;99.90;;;;;;5116632;28;20180;-63
2022/10/09 00:33:11;;;;;;;9.30;6.80;;;6.00;99.90;;;;;;5116320;28;20172;-63
2022/10/09 00:35:38;;;;;;;7.57;6.63;;;6.00;99.90;;;;;;5116754;28;20180;-63
2022/10/09 00:38:05;;;;;;;8.70;6.57;;;5.90;99.90;;;;;;5132713;27;20213;-63
2022/10/09 00:40:31;;;;;;;7.53;6.33;;;5.90;99.90;;;;;;5137190;27;20180;-63
2022/10/09 00:42:57;;;;;;;8.93;6.93;;;5.80;99.90;;;;;;5136685;27;20644;-63
2022/10/09 00:45:23;;;;;;;15.63;7.03;;;5.80;99.90;;;;;;5136739;27;20180;-63
2022/10/09 00:47:56;;;;;;;11.27;7.13;;;5.80;99.90;;;;;;5136565;27;20187;-63
2022/10/09 00:50:40;;;;;;;9.07;6.43;;;5.80;99.90;;;;;;5136939;27;20239;-68
2022/10/09 00:53:07;;;;;;;7.63;6.80;;;5.80;99.90;;;;;;5135618;27;20171;-64
2022/10/09 00:55:34;;;;;;;7.17;6.43;;;5.70;99.90;;;;;;5136975;27;20175;-64
2022/10/09 00:58:01;;;;;;;8.87;6.90;;;5.70;99.90;;;;;;5131392;27;20184;-63
2022/10/09 01:00:27;;;;;;;7.80;6.63;;;5.60;99.90;;;;;;5116236;28;20181;-63
2022/10/09 01:02:54;;;;;;;10.27;7.23;;;5.50;99.90;;;;;;5116229;28;20199;-63
2022/10/09 01:05:30;;;;;;;8.93;7.40;;;5.40;99.90;;;;;;5115126;28;20249;-63
2022/10/09 01:08:12;;;;;;;8.00;7.03;;;5.30;99.90;;;;;;5130865;27;20187;-63
2022/10/09 01:10:52;;;;;;;14.73;7.30;;;5.30;99.90;;;;;;5136807;27;20167;-64
2022/10/09 01:13:34;;;;;;;10.43;7.07;;;5.30;99.90;;;;;;5137153;27;20170;-63
2022/10/09 01:16:12;;;;;;;8.20;7.00;;;5.30;99.90;;;;;;5136697;27;20567;-63
2022/10/09 01:18:54;;;;;;;9.73;7.17;;;5.30;99.90;;;;;;5134856;27;20172;-63
2022/10/09 01:21:27;;;;;;;8.03;6.27;;;5.30;99.90;;;;;;5136428;27;20196;-63
2022/10/09 01:24:07;;;;;;;11.37;6.53;;;5.20;99.90;;;;;;5134657;27;20256;-63
2022/10/09 01:26:51;;;;;;;9.97;7.23;;;5.20;99.90;;;;;;5136456;27;20235;-63
2022/10/09 01:29:19;;;;;;;8.67;6.87;;;5.30;99.90;;;;;;5119637;27;20204;-63
2022/10/09 01:31:48;;;;;;;8.73;7.20;;;5.30;99.90;;;;;;5115368;28;20188;-63
2022/10/09 01:34:16;;;;;;;7.83;6.90;;;5.20;99.90;;;;;;5115118;28;20176;-63
2022/10/09 01:36:43;;;;;;;12.90;6.67;;;5.20;99.90;;;;;;5119836;27;20649;-63
2022/10/09 01:39:16;;;;;;;7.53;6.60;;;5.10;99.90;;;;;;5135624;27;20180;-63
2022/10/09 01:41:43;;;;;;;7.50;6.80;;;5.00;99.90;;;;;;5135391;27;20203;-63
2022/10/09 01:44:38;;;;;;;9.13;6.63;;;5.10;99.90;;;;;;5135527;27;20217;-63
2022/10/09 01:47:05;;;;;;;6.63;5.93;;;5.00;99.90;;;;;;5135524;27;20264;-63
2022/10/09 01:49:53;;;;;;;7.37;6.03;;;5.00;99.90;;;;;;5135337;27;20210;-63
2022/10/09 01:52:37;;;;;;;9.83;7.03;;;5.00;99.90;;;;;;5135284;27;20215;-63
2022/10/09 01:55:21;;;;;;;7.17;6.57;;;4.90;99.90;;;;;;5135419;27;20194;-63
2022/10/09 01:58:02;;;;;;;7.93;6.90;;;4.90;99.90;;;;;;5132412;27;20547;-63
2022/10/09 02:00:32;;;;;;;8.57;7.30;;;4.90;99.90;;;;;;5114711;28;20617;-63
2022/10/09 02:02:58;;;;;;;7.77;6.97;;;4.80;99.90;;;;;;5113359;28;20196;-63
2022/10/09 02:05:27;;;;;;;10.07;7.27;;;4.80;99.90;;;;;;5114531;28;20176;-63
2022/10/09 02:07:54;;;;;;;11.37;7.63;;;4.80;99.90;;;;;;5127760;27;20206;-63
2022/10/09 02:10:20;;;;;;;8.20;7.37;;;4.80;99.90;;;;;;5135299;27;20568;-63
2022/10/09 02:12:53;;;;;;;9.17;7.57;;;4.90;99.90;;;;;;5135013;27;20555;-64
2022/10/09 02:15:21;;;;;;;10.03;8.07;;;4.90;99.90;;;;;;5134860;27;20590;-64
2022/10/09 02:17:48;;;;;;;9.73;8.20;;;5.00;99.90;;;;;;5133736;27;20251;-63
2022/10/09 02:20:33;;;;;;;8.83;7.93;;;5.00;99.90;;;;;;5134848;27;20659;-64
2022/10/09 02:23:03;;;;;;;12.23;8.10;;;4.90;99.90;;;;;;5133715;27;20202;-64
2022/10/09 02:25:29;;;;;;;12.07;8.00;;;4.80;99.90;;;;;;5134822;27;20168;-63
2022/10/09 02:27:55;;;;;;;10.70;7.57;;;4.80;99.90;;;;;;5128957;27;20188;-64
2022/10/09 02:30:25;;;;;;;8.80;7.10;;;4.70;99.90;;;;;;5114396;28;20173;-63
2022/10/09 02:32:54;;;;;;;9.70;7.70;;;4.70;99.90;;;;;;5112731;28;20199;-63
2022/10/09 02:35:20;;;;;;;9.03;7.63;;;4.60;99.90;;;;;;5114125;28;20222;-63
2022/10/09 02:37:48;;;;;;;9.93;7.87;;;4.60;99.90;;;;;;5127848;27;20187;-63
2022/10/09 02:40:14;;;;;;;9.00;7.00;;;4.60;99.90;;;;;;5134658;27;20648;-63
2022/10/09 02:42:40;;;;;;;9.50;7.90;;;4.60;99.90;;;;;;5134260;27;20239;-63
2022/10/09 02:45:07;;;;;;;9.20;7.57;;;4.60;99.90;;;;;;5134994;27;20204;-64
2022/10/09 02:47:33;;;;;;;9.83;6.90;;;4.60;99.90;;;;;;5135203;27;20168;-64
2022/10/09 02:49:58;;;;;;;7.30;6.60;;;4.50;99.90;;;;;;5134698;27;20199;-64
2022/10/09 02:52:24;;;;;;;10.37;6.83;;;4.50;99.90;;;;;;5134710;27;20737;-63
2022/10/09 02:54:50;;;;;;;9.07;7.40;;;4.50;99.90;;;;;;5133180;27;20266;-64
2022/10/09 02:57:16;;;;;;;10.10;7.03;;;4.50;99.90;;;;;;5134532;27;20194;-64
2022/10/09 02:59:41;;;;;;;9.40;6.40;;;4.30;99.90;;;;;;5114631;27;20192;-64
2022/10/09 03:02:07;;;;;;;10.37;7.57;;;4.30;99.90;;;;;;5113681;28;20235;-64
2022/10/09 03:04:33;;;;;;;9.13;6.93;;;4.30;99.90;;;;;;5113711;28;20172;-63
2022/10/09 03:06:58;;;;;;;8.03;7.03;;;4.30;99.90;;;;;;5120700;28;20188;-63
2022/10/09 03:09:24;;;;;;;8.57;6.93;;;4.40;99.90;;;;;;5132868;28;20211;-63
2022/10/09 03:11:50;;;;;;;11.43;7.70;;;4.40;99.90;;;;;;5134118;27;20195;-63
2022/10/09 03:14:15;;;;;;;10.00;7.57;;;4.40;99.90;;;;;;5134332;27;20176;-63
2022/10/09 03:16:41;;;;;;;10.37;7.13;;;4.40;99.90;;;;;;5132899;28;20567;-64
2022/10/09 03:19:07;;;;;;;7.70;7.00;;;4.30;99.90;;;;;;5134193;27;20225;-64
2022/10/09 03:21:33;;;;;;;9.07;6.73;;;4.30;99.90;;;;;;5133899;27;20199;-64
2022/10/09 03:23:58;;;;;;;8.27;6.73;;;4.30;99.90;;;;;;5134363;27;20254;-63
2022/10/09 03:26:26;;;;;;;7.80;6.77;;;4.30;99.90;;;;;;5134062;27;20245;-63
2022/10/09 03:28:53;;;;;;;7.90;7.10;;;4.30;99.90;;;;;;5125004;27;20686;-63
2022/10/09 03:31:21;;;;;;;9.90;7.63;;;4.40;99.90;;;;;;5117455;28;20191;-64
2022/10/09 03:33:47;;;;;;;10.30;8.00;;;4.30;99.90;;;;;;5116308;28;20176;-63
2022/10/09 03:36:13;;;;;;;8.43;7.63;;;4.30;99.90;;;;;;5118214;27;20247;-63
2022/10/09 03:38:39;;;;;;;8.40;7.60;;;4.20;99.90;;;;;;5138016;27;20203;-63
2022/10/09 03:41:05;;;;;;;9.60;7.90;;;4.00;99.90;;;;;;5136418;27;20218;-63
2022/10/09 03:43:32;;;;;;;8.90;8.00;;;4.00;99.90;;;;;;5136604;27;20660;-63
2022/10/09 03:45:58;;;;;;;9.53;8.20;;;4.00;99.90;;;;;;5137892;27;20168;-63
2022/10/09 03:48:24;;;;;;;11.77;7.63;;;4.10;99.90;;;;;;5137761;27;20203;-63
2022/10/09 03:50:50;;;;;;;10.93;8.27;;;4.00;99.90;;;;;;5137564;27;20199;-63
2022/10/09 03:53:16;;;;;;;9.77;8.13;;;4.00;99.90;;;;;;5136447;27;20213;-63
2022/10/09 03:55:42;;;;;;;9.27;8.10;;;3.90;99.90;;;;;;5137973;27;20665;-63
2022/10/09 03:58:08;;;;;;;7.70;6.87;;;3.90;99.90;;;;;;5131280;27;20184;-63
2022/10/09 04:00:34;;;;;;;8.93;6.80;;;3.90;99.90;;;;;;5115752;28;20191;-63
2022/10/09 04:03:00;;;;;;;16.67;10.67;;;3.90;99.90;;;;;;5116916;28;20204;-63
2022/10/09 04:05:26;;;;;;;15.50;10.67;;;3.70;99.90;;;;;;5115652;28;20176;-63
2022/10/09 04:07:52;;;;;;;13.60;9.77;;;3.80;99.90;;;;;;5131434;27;20191;-63
2022/10/09 04:10:18;;;;;;;12.10;9.17;;;3.80;99.90;;;;;;5137413;27;20164;-63
2022/10/09 04:12:44;;;;;;;9.73;8.30;;;3.70;99.90;;;;;;5137286;27;20197;-63
2022/10/09 04:15:09;;;;;;;9.87;8.37;;;3.60;99.90;;;;;;5137284;27;20240;-63
2022/10/09 04:17:35;;;;;;;10.07;8.40;;;3.50;99.90;;;;;;5137299;27;20181;-63
2022/10/09 04:20:01;;;;;;;9.77;7.97;;;3.50;99.90;;;;;;5137140;27;20232;-63
2022/10/09 04:22:27;;;;;;;9.10;6.90;;;3.50;99.90;;;;;;5137007;27;20649;-63
2022/10/09 04:24:53;;;;;;;7.90;7.20;;;3.50;99.90;;;;;;5137088;27;20180;-63
2022/10/09 04:27:19;;;;;;;8.63;7.07;;;3.40;99.90;;;;;;5137038;27;20592;-63
2022/10/09 04:29:44;;;;;;;7.87;7.07;;;3.30;99.90;;;;;;5116916;27;20680;-63
2022/10/09 04:32:10;;;;;;;7.77;6.73;;;3.30;99.90;;;;;;5115008;28;20269;-63
2022/10/09 04:34:36;;;;;;;7.53;6.83;;;3.20;99.90;;;;;;5116412;28;20633;-62
2022/10/09 04:37:02;;;;;;;7.83;7.03;;;3.20;99.90;;;;;;5122472;27;20188;-63
2022/10/09 04:39:27;;;;;;;8.10;7.30;;;3.20;99.90;;;;;;5135974;27;20209;-63
2022/10/09 04:41:53;;;;;;;7.80;7.00;;;3.30;99.90;;;;;;5136777;27;20215;-63
2022/10/09 04:44:19;;;;;;;7.43;6.73;;;3.30;99.90;;;;;;5135421;27;20183;-62
2022/10/09 04:46:44;;;;;;;7.93;7.23;;;3.30;99.90;;;;;;5136687;27;20250;-63
2022/10/09 04:49:12;;;;;;;8.10;6.90;;;3.30;99.90;;;;;;5136548;27;20199;-63
2022/10/09 04:51:38;;;;;;;7.77;7.17;;;3.30;99.90;;;;;;5136357;27;20249;-63
2022/10/09 04:54:04;;;;;;;7.57;6.87;;;3.20;99.90;;;;;;5136823;27;20575;-63
2022/10/09 04:56:29;;;;;;;8.57;7.47;;;3.30;99.90;;;;;;5137076;27;20172;-63
2022/10/09 04:58:55;;;;;;;8.00;7.30;;;3.30;99.90;;;;;;5123353;27;20221;-63
2022/10/09 05:01:24;;;;;;;9.70;7.60;;;3.30;99.90;;;;;;5115978;28;20208;-63
2022/10/09 05:03:51;;;;;;;8.70;7.73;;;3.30;99.90;;;;;;5115766;28;20177;-63
2022/10/09 05:06:18;;;;;;;7.73;6.93;;;3.30;99.90;;;;;;5116965;27;20206;-65
2022/10/09 05:08:44;;;;;;;9.13;7.33;;;3.30;99.90;;;;;;5136291;27;20244;-66
2022/10/09 05:11:16;;;;;;;8.33;7.47;;;3.30;99.90;;;;;;5136398;27;20187;-66
2022/10/09 05:13:46;;;;;;;7.73;6.97;;;3.30;99.90;;;;;;5136285;27;20568;-66
2022/10/09 05:16:14;;;;;;;8.40;7.60;;;3.30;99.90;;;;;;5136452;27;20241;-66
2022/10/09 05:18:46;;;;;;;9.63;7.37;;;3.30;99.90;;;;;;5136647;27;20532;-66
2022/10/09 05:21:12;;;;;;;7.70;6.90;;;3.20;99.90;;;;;;5134653;27;20211;-66
2022/10/09 05:23:38;;;;;;;8.77;7.90;;;3.20;99.90;;;;;;5134826;27;20288;-66
2022/10/09 05:26:06;;;;;;;11.97;8.87;;;3.20;99.90;;;;;;5135985;27;20175;-66
2022/10/09 05:28:33;;;;;;;9.17;7.80;;;3.20;99.90;;;;;;5126029;27;20208;-66
2022/10/09 05:31:01;;;;;;;9.30;8.33;;;3.30;99.90;;;;;;5115305;28;20610;-66
2022/10/09 05:33:28;;;;;;;12.70;8.53;;;3.40;99.90;;;;;;5115289;27;20180;-66
2022/10/09 05:35:56;;;;;;;11.50;9.10;;;3.40;99.90;;;;;;5114191;28;20645;-65
2022/10/09 05:38:23;;;;;;;14.60;9.07;;;3.40;99.90;;;;;;5134109;27;20244;-66
2022/10/09 05:40:57;;;;;;;12.70;8.97;;;3.40;99.90;;;;;;5134232;27;20248;-66
2022/10/09 05:43:28;;;;;;;12.30;9.10;;;3.40;99.90;;;;;;5135911;27;20209;-66
2022/10/09 05:45:54;;;;;;;13.60;9.07;;;3.40;99.90;;;;;;5135872;27;20161;-66
2022/10/09 05:48:20;;;;;;;12.10;8.87;;;3.40;99.90;;;;;;5135477;27;20199;-66
2022/10/09 05:50:47;;;;;;;13.17;8.83;;;3.40;99.90;;;;;;5134661;27;20164;-67
2022/10/09 05:53:13;;;;;;;11.20;8.87;;;3.40;99.90;;;;;;5134063;27;20206;-67
2022/10/09 05:55:39;;;;;;;10.47;8.57;;;3.40;99.90;;;;;;5134027;27;20183;-67
2022/10/09 05:58:04;;;;;;;11.43;8.27;;;3.30;99.90;;;;;;5129684;27;20249;-67
2022/10/09 06:00:30;;;;;;;11.17;8.23;;;3.30;99.90;;;;;;5115016;28;20256;-67
2022/10/09 06:02:56;;;;;;;11.10;8.47;;;3.20;99.90;;;;;;5114801;28;20249;-68
2022/10/09 06:05:22;;;;;;;10.73;8.40;;;3.30;99.90;;;;;;5113343;28;20172;-68
2022/10/09 06:07:48;;;;;;;8.33;7.53;;;3.30;99.90;;;;;;5128555;27;20180;-67
2022/10/09 06:10:14;;;;;;;9.47;8.17;;;3.30;99.90;;;;;;5135587;27;20282;-67
2022/10/09 06:12:40;;;;;;;11.20;7.80;;;3.30;99.90;;;;;;5135237;27;20608;-67
2022/10/09 06:15:06;;;;;;;9.57;8.33;;;3.30;99.90;;;;;;5135027;27;20168;-68
2022/10/09 06:17:33;;;;;;;11.40;9.23;;;3.30;99.90;;;;;;5133753;27;20316;-67
2022/10/09 06:19:58;;;;;;;12.97;10.83;;;3.30;99.90;;;;;;5134790;27;20180;-68
2022/10/09 06:22:24;;;;;;;13.20;11.90;;;3.20;99.90;;;;;;5134641;27;20203;-68
2022/10/09 06:24:50;;;;;;;12.57;10.33;;;3.30;99.90;;;;;;5133534;27;20179;-69
2022/10/09 06:27:16;;;;;;;11.43;10.20;;;3.20;99.90;;;;;;5134828;27;20512;-68
2022/10/09 06:29:42;;;;;;;12.20;9.13;;;3.20;99.90;;;;;;5113628;27;20219;-68
2022/10/09 06:32:08;;;;;;;10.60;8.83;;;3.30;99.90;;;;;;5114481;28;20193;-70
2022/10/09 06:34:33;;;;;;;12.60;9.53;;;3.40;99.90;;;;;;5114333;28;20164;-68
2022/10/09 06:36:59;;;;;;;11.27;9.03;;;3.40;99.90;;;;;;5121243;27;20537;-67
2022/10/09 06:39:25;;;;;;;11.37;9.30;;;3.50;99.90;;;;;;5135105;27;20209;-67
2022/10/09 06:41:51;;;;;;;11.40;9.10;;;3.50;99.90;;;;;;5134483;27;20698;-68
2022/10/09 06:44:17;;;;;;;10.33;9.33;;;3.50;99.90;;;;;;5133949;27;20191;-66
2022/10/09 06:46:44;;;;;;;12.43;9.10;;;3.50;99.90;;;;;;5134773;27;20168;-66
2022/10/09 06:49:10;;;;;;;10.17;8.93;;;3.60;99.90;;;;;;5135069;27;20204;-66
2022/10/09 06:51:37;;;;;;;10.43;8.33;;;3.70;99.90;;;;;;5134872;27;20192;-66
2022/10/09 06:54:10;;;;;;;12.30;10.27;;;3.80;99.90;;;;;;5134959;27;20202;-66
2022/10/09 06:56:36;;;;;;;9.67;8.67;;;3.90;99.90;;;;;;5134883;27;20156;-66
2022/10/09 06:59:04;;;;;;;9.47;8.37;;;3.90;99.90;;;;;;5120580;27;20580;-66
2022/10/09 07:01:31;;;;;;;12.10;9.83;;;3.90;99.90;;;;;;5113789;28;20196;-66
2022/10/09 07:04:06;;;;;;;11.83;9.20;;;4.00;99.90;;;;;;5113932;28;20172;-66
2022/10/09 07:06:35;;;;;;;13.30;9.57;;;4.10;99.90;;;;;;5117308;28;20187;-66
2022/10/09 07:09:05;;;;;;;12.63;9.80;;;4.20;99.90;;;;;;5133521;28;20678;-66
2022/10/09 07:11:33;;;;;;;12.70;9.30;;;4.20;99.90;;;;;;5134698;28;20287;-67
2022/10/09 07:14:03;;;;;;;11.93;9.80;;;4.40;99.90;;;;;;5133349;28;20175;-66
2022/10/09 07:16:32;;;;;;;13.77;9.40;;;4.50;99.90;;;;;;5134376;27;20614;-67
2022/10/09 07:19:02;;;;;;;10.40;9.30;;;4.70;99.90;;;;;;5133000;28;20184;-67
2022/10/09 07:21:28;;;;;;;11.13;8.60;;;4.90;99.90;;;;;;5134517;27;20195;-66
2022/10/09 07:23:58;;;;;;;10.70;9.33;;;5.10;99.90;;;;;;5133158;28;20217;-66
2022/10/09 07:26:26;;;;;;;11.13;9.73;;;5.30;99.90;;;;;;5134412;27;20179;-66
2022/10/09 07:28:52;;;;;;;13.23;10.33;;;5.60;99.90;;;;;;5121614;27;20236;-67
2022/10/09 07:31:18;;;;;;;12.33;10.07;;;5.80;99.90;;;;;;5113624;28;20196;-66
2022/10/09 07:33:48;;;;;;;15.13;10.37;;;5.90;99.90;;;;;;5114121;28;20173;-69
2022/10/09 07:36:15;;;;;;;15.10;9.33;;;6.20;99.90;;;;;;5114471;28;20240;-65
2022/10/09 07:38:41;;;;;;;14.47;10.30;;;6.40;99.90;;;;;;5134270;27;20241;-65
2022/10/09 07:41:10;;;;;;;13.63;10.10;;;6.50;99.90;;;;;;5134180;27;20641;-66
2022/10/09 07:43:40;;;;;;;13.83;9.13;;;6.60;99.90;;;;;;5133961;27;20680;-66
2022/10/09 07:46:10;;;;;;;19.37;10.83;;;6.80;99.90;;;;;;5133971;27;20551;-66
2022/10/09 07:48:35;;;;;;;17.37;10.27;;;7.00;99.90;;;;;;5133802;27;20203;-66
2022/10/09 07:51:09;;;;;;;15.40;10.53;;;7.10;99.90;;;;;;5134250;27;20325;-66
2022/10/09 07:53:35;;;;;;;12.37;9.77;;;7.30;99.90;;;;;;5132788;28;20175;-67
2022/10/09 07:56:00;;;;;;;11.73;9.90;;;7.40;99.90;;;;;;5134364;27;20187;-66
2022/10/09 07:58:26;;;;;;;13.57;10.53;;;7.50;99.90;;;;;;5125318;27;20192;-67
2022/10/09 08:00:52;;;;;;;12.43;10.13;;;7.70;99.90;;;;;;5113257;28;20173;-66
2022/10/09 08:03:17;;;;;;;14.83;10.17;;;8.00;99.90;;;;;;5113886;28;20633;-67
2022/10/09 08:05:43;;;;;;;14.93;11.00;;;8.10;99.90;;;;;;5113341;28;20173;-67
2022/10/09 08:08:09;;;;;;;12.07;8.70;;;8.30;99.90;;;;;;5130049;28;20628;-67
2022/10/09 08:10:34;;;;;;;12.30;9.13;;;8.50;99.90;;;;;;5132528;28;20175;-67
2022/10/09 08:13:00;;;;;;;10.63;8.30;;;8.70;99.90;;;;;;5133606;27;20199;-67
2022/10/09 08:15:26;;;;;;;13.23;8.90;;;8.90;99.90;;;;;;5136310;27;20232;-67
2022/10/09 08:17:53;;;;;;;13.13;8.90;;;9.00;99.90;;;;;;5137393;27;20541;-68
2022/10/09 08:20:18;;;;;;;12.37;8.53;;;9.20;99.90;;;;;;5137845;27;20176;-67
2022/10/09 08:22:44;;;;;;;12.57;8.40;;;9.50;99.90;;;;;;5137080;27;20652;-68
2022/10/09 08:25:10;;;;;;;11.67;8.17;;;9.70;99.90;;;;;;5135857;27;20274;-68
2022/10/09 08:27:36;;;;;;;10.17;7.67;;;9.80;99.90;;;;;;5135400;27;20628;-68
2022/10/09 08:30:01;;;;;;;11.03;8.00;;;9.90;99.90;;;;;;5116704;28;20200;-67
2022/10/09 08:32:27;;;;;;;10.63;8.50;;;10.10;99.90;;;;;;5115068;28;20199;-67
2022/10/09 08:34:53;;;;;;;11.93;7.30;;;10.20;99.90;;;;;;5116400;28;20201;-67
2022/10/09 08:37:19;;;;;;;13.40;8.10;;;10.30;99.90;;;;;;5124925;27;20187;-67
2022/10/09 08:39:44;;;;;;;9.77;8.30;;;10.40;99.90;;;;;;5137479;27;20632;-68
2022/10/09 08:42:48;;;;;;;14.13;8.77;;;10.50;99.90;;;;;;5136618;27;20219;-68
2022/10/09 08:45:16;;;;;;;16.43;8.07;;;10.60;99.90;;;;;;5134524;27;20203;-67
2022/10/09 08:47:57;;;;;;;10.23;7.20;;;10.80;99.90;;;;;;5137367;27;20167;-68
2022/10/09 08:50:28;;;;;;;9.33;7.53;;;11.00;99.90;;;;;;5135395;27;20225;-67
2022/10/09 08:53:29;;;;;;;12.20;7.57;;;11.20;99.90;;;;;;5136474;27;20196;-67
2022/10/09 08:55:57;;;;;;;8.73;6.53;;;11.30;99.90;;;;;;5113095;27;20196;-67
2022/10/09 08:58:30;;;;;;;8.60;7.20;;;11.40;99.90;;;;;;5128039;27;20275;-68
2022/10/09 09:01:23;;;;;;;8.67;7.07;;;11.50;99.90;;;;;;5116071;28;20606;-67
2022/10/09 09:04:07;;;;;;;7.90;6.97;;;11.70;99.90;;;;;;5116382;28;20244;-67
2022/10/09 09:06:52;;;;;;;14.77;6.93;;;11.80;99.90;;;;;;5119019;27;20199;-68
2022/10/09 09:09:45;;;;;;;8.57;6.10;;;11.90;99.90;;;;;;5136251;27;20191;-67
2022/10/09 09:12:26;;;;;;;7.37;6.10;;;12.00;99.90;;;;;;5136166;27;20196;-67
2022/10/09 09:15:26;;;;;;;9.73;7.00;;;12.10;99.90;;;;;;5136525;27;20621;-68
2022/10/09 09:18:01;;;;;;;8.27;6.00;;;12.20;99.90;;;;;;5136428;27;20175;-68
2022/10/09 09:20:38;;;;;;;8.10;6.40;;;12.30;99.90;;;;;;5136397;27;20159;-68
2022/10/09 09:23:12;;;;;;;9.90;6.50;;;12.40;99.90;;;;;;5136409;27;20195;-65
2022/10/09 09:25:41;;;;;;;10.98;6.00;;;12.50;99.90;;;;;;5136354;27;20164;-69
2022/10/09 09:28:24;;;;;;;12.77;6.10;;;12.50;99.90;;;;;;5130521;27;20184;-68
2022/10/09 09:30:56;;;;;;;8.97;5.70;;;12.60;99.90;;;;;;5115871;28;20613;-68
2022/10/09 09:33:31;;;;;;;7.18;5.65;;;12.70;99.90;;;;;;5115723;28;20156;-68
2022/10/09 09:36:23;;;;;;;9.00;5.18;;;12.80;99.90;;;;;;5115516;28;20156;-68
2022/10/09 09:38:50;;;;;;;8.05;5.55;;;12.90;99.90;;;;;;5094855;28;20243;-67
2022/10/09 09:41:16;;;;;;;9.27;5.68;;;13.00;99.90;;;;;;5094867;28;20204;-67
2022/10/09 09:43:42;;;;;;;8.10;5.25;;;13.10;99.90;;;;;;5095094;28;20168;-68
2022/10/09 09:46:21;;;;;;;7.47;5.03;;;13.20;99.90;;;;;;5095013;28;20186;-68
2022/10/09 09:48:48;;;;;;;9.63;5.13;;;13.30;99.90;;;;;;5094891;28;20189;-68
2022/10/09 09:51:30;;;;;;;6.63;4.70;;;13.30;99.90;;;;;;5094550;28;20728;-70
2022/10/09 09:54:03;;;;;;;5.60;4.65;;;13.40;99.90;;;;;;5095115;28;20244;-67
2022/10/09 09:56:40;;;;;;;9.63;3.65;;;13.50;99.90;;;;;;5094787;28;20240;-67
2022/10/09 09:59:17;;;;;;;5.55;3.45;;;13.60;99.90;;;;;;5108852;28;20183;-67
2022/10/09 10:01:43;;;;;;;5.47;3.40;;;13.70;99.90;;;;;;5115418;28;20184;-67
2022/10/09 10:04:18;;;;;;;4.10;3.40;;;13.80;99.90;;;;;;5114974;28;20175;-67
2022/10/09 10:06:44;;;;;;;8.68;3.70;;;13.90;99.90;;;;;;5120104;27;20187;-69
2022/10/09 10:09:17;;;;;;;4.97;3.47;;;13.90;99.90;;;;;;5135483;27;20290;-68
2022/10/09 10:11:45;;;;;;;3.58;3.25;;;14.00;99.90;;;;;;5135617;27;20194;-68
2022/10/09 10:14:15;;;;;;;6.05;3.20;;;14.10;99.90;;;;;;5135686;27;20167;-69
2022/10/09 10:16:41;;;;;;;4.07;3.20;;;14.20;99.90;;;;;;5136327;27;20572;-69
2022/10/09 10:19:26;;;;;;;10.20;3.60;;;14.20;99.90;;;;;;5136476;27;20171;-67
2022/10/09 10:22:02;;;;;;;3.40;3.10;;;14.30;99.90;;;;;;5135173;27;20218;-67
2022/10/09 10:24:37;;;;;;;8.68;3.47;;;14.40;99.90;;;;;;5134618;27;20266;-67
2022/10/09 10:27:36;;;;;;;11.90;3.70;;;14.50;99.90;;;;;;5136232;27;20206;-67
2022/10/09 10:30:05;;;;;;;3.65;3.22;;;14.60;99.90;;;;;;5095040;28;20228;-67
2022/10/09 10:32:38;;;;;;;4.63;3.10;;;14.70;99.90;;;;;;5094108;28;20220;-67
2022/10/09 10:35:17;;;;;;;6.72;3.45;;;14.80;99.90;;;;;;5094133;28;20177;-67
2022/10/09 10:38:14;;;;;;;5.75;3.00;;;14.90;99.90;;;;;;5120197;27;20176;-67
2022/10/09 10:40:57;;;;;;;8.55;3.33;;;14.90;99.90;;;;;;5134994;27;20167;-67
2022/10/09 10:43:43;;;;;;;9.07;3.50;;;15.00;99.90;;;;;;5133404;27;20188;-67
2022/10/09 10:46:22;;;;;;;5.13;3.35;;;15.10;99.90;;;;;;5134674;27;20156;-67
2022/10/09 10:48:49;;;;;;;6.70;3.28;;;15.10;99.90;;;;;;5133577;27;20670;-67
2022/10/09 10:51:36;;;;;;;7.35;3.28;;;15.30;99.90;;;;;;5133172;27;20187;-67
2022/10/09 10:54:14;;;;;;;5.40;2.70;;;15.40;99.90;;;;;;5134475;27;20167;-67
2022/10/09 10:56:47;;;;;;;3.63;2.90;;;15.60;99.90;;;;;;5134715;27;20162;-67
2022/10/09 10:59:36;;;;;;;3.58;2.70;;;15.80;99.90;;;;;;5118905;27;20184;-67
2022/10/09 11:02:30;;;;;;;4.95;2.90;;;16.00;99.90;;;;;;5113807;28;20196;-67
2022/10/09 11:05:50;;;;;;;3.60;2.70;;;16.10;99.90;;;;;;5113807;28;20198;-67
2022/10/09 11:08:34;;;;;;;7.72;2.67;;;16.20;99.90;;;;;;5076602;28;20279;-67
2022/10/09 11:11:32;;;;;;;3.25;2.95;;;16.30;99.90;;;;;;5093420;28;20189;-67
2022/10/09 11:14:31;;;;;;;5.32;2.78;;;16.30;99.90;;;;;;5093543;28;20531;-67
2022/10/09 11:17:25;;;;;;;5.82;2.65;;;16.30;99.90;;;;;;5093411;28;20154;-67
2022/10/09 11:19:56;;;;;;;4.40;3.00;;;16.50;99.90;;;;;;5093395;28;20166;-67
2022/10/09 11:22:43;;;;;;;3.92;2.70;;;16.80;99.90;;;;;;5093065;28;20193;-68
2022/10/09 11:25:14;;;;;;;5.28;3.30;;;16.80;99.90;;;;;;5093447;28;20165;-67
2022/10/09 11:28:06;;;;;;;5.68;2.63;;;16.90;99.90;;;;;;5095450;28;20184;-68
2022/10/09 11:30:49;;;;;;;4.97;3.05;;;17.00;99.90;;;;;;5113863;28;20180;-67
2022/10/09 11:33:26;;;;;;;4.93;2.72;;;16.90;99.90;;;;;;5114071;28;20160;-67
2022/10/09 11:36:13;;;;;;;3.83;2.88;;;16.90;99.90;;;;;;5114211;28;20163;-67
2022/10/09 11:38:50;;;;;;;6.40;2.88;;;16.90;99.90;;;;;;5093317;28;20622;-71
2022/10/09 11:41:16;;;;;;;2.50;2.25;;;16.90;99.90;;;;;;5093331;28;20250;-70
2022/10/09 11:43:49;;;;;;;3.90;2.80;;;17.10;99.90;;;;;;5093182;28;20181;-70
2022/10/09 11:46:23;;;;;;;5.10;2.70;;;17.30;99.90;;;;;;5093682;28;20177;-70
2022/10/09 11:49:11;;;;;;;3.35;2.50;;;17.60;99.90;;;;;;5094779;28;20231;-70
2022/10/09 11:51:43;;;;;;;3.95;2.53;;;17.90;99.90;;;;;;5096600;28;20185;-70
2022/10/09 11:54:13;;;;;;;5.70;2.70;;;18.10;99.90;;;;;;5096939;28;20676;-70
2022/10/09 11:56:58;;;;;;;3.40;2.58;;;18.20;99.90;;;;;;5095660;28;20690;-70
2022/10/09 11:59:30;;;;;;;3.33;2.30;;;18.30;99.90;;;;;;5114532;28;20203;-70
2022/10/09 12:02:12;;;;;;;3.92;2.42;;;18.40;99.90;;;;;;5118234;28;20192;-70
2022/10/09 12:04:38;;;;;;;5.40;2.60;;;18.60;99.90;;;;;;5117303;28;20157;-71
2022/10/09 12:07:08;;;;;;;4.10;2.35;;;18.80;99.90;;;;;;5123354;27;20187;-70
2022/10/09 12:09:38;;;;;;;4.40;2.50;;;18.80;99.90;;;;;;5136216;27;20196;-70
2022/10/09 12:12:06;;;;;;;4.50;2.38;;;19.10;99.90;;;;;;5137319;27;20269;-70
2022/10/09 12:14:36;;;;;;;3.90;2.25;;;19.00;99.90;;;;;;5137446;27;20161;-70
2022/10/09 12:17:30;;;;;;;3.65;2.40;;;19.10;99.90;;;;;;5137460;27;20510;-71
2022/10/09 12:20:07;;;;;;;3.63;2.30;;;19.00;99.90;;;;;;5137870;27;20191;-70
2022/10/09 12:22:38;;;;;;;5.13;2.47;;;19.20;99.90;;;;;;5137201;27;20198;-70
2022/10/09 12:25:13;;;;;;;3.63;2.20;;;19.30;99.90;;;;;;5135943;27;20168;-70
2022/10/09 12:27:40;;;;;;;2.90;2.10;;;19.40;99.90;;;;;;5135335;27;20627;-70
2022/10/09 12:30:11;;;;;;;4.65;2.30;;;19.50;99.90;;;;;;5116523;28;20200;-70
2022/10/09 12:32:44;;;;;;;3.25;2.15;;;19.70;99.90;;;;;;5116522;28;20189;-70
2022/10/09 12:35:25;;;;;;;6.70;2.70;;;19.40;99.90;;;;;;5116832;28;20253;-70
2022/10/09 12:37:51;;;;;;;8.30;2.50;;;19.40;99.90;;;;;;5130812;27;20179;-70
2022/10/09 12:40:23;;;;;;;6.32;2.63;;;19.40;99.90;;;;;;5137242;27;20163;-70
2022/10/09 12:42:51;;;;;;;4.63;2.45;;;19.60;99.90;;;;;;5136875;27;20309;-70
2022/10/09 12:45:25;;;;;;;3.03;2.10;;;19.70;99.90;;;;;;5136915;27;20176;-72
2022/10/09 12:47:52;;;;;;;3.15;2.20;;;19.60;99.90;;;;;;5137165;27;20170;-70
2022/10/09 12:50:24;;;;;;;5.25;2.40;;;19.70;99.90;;;;;;5136177;27;20196;-71
2022/10/09 12:52:53;;;;;;;5.28;2.63;;;19.80;99.90;;;;;;5137161;27;20690;-72
2022/10/09 12:55:35;;;;;;;5.65;2.30;;;19.90;99.90;;;;;;5137139;27;20508;-72
2022/10/09 12:58:20;;;;;;;5.07;2.13;;;19.80;99.90;;;;;;5130167;27;20767;-72
2022/10/09 13:00:48;;;;;;;4.25;2.28;;;19.70;99.90;;;;;;5115719;28;20613;-72
2022/10/09 13:03:33;;;;;;;3.78;2.08;;;19.70;99.90;;;;;;5116223;28;20244;-73
2022/10/09 13:06:00;;;;;;;3.00;2.00;;;19.70;99.90;;;;;;5116262;28;20149;-72
2022/10/09 13:08:33;;;;;;;4.03;2.10;;;19.80;99.90;;;;;;5135317;27;20227;-72
2022/10/09 13:11:34;;;;;;;3.40;2.20;;;19.70;99.90;;;;;;5136554;27;20163;-72